createdAt,value
2017-11-29T00:02:13.142Z,99888.17
2017-11-29T00:04:47.899Z,99881.38
2017-11-29T00:07:22.813Z,99888.17
2017-11-29T00:09:57.741Z,99886.41
2017-11-29T00:12:32.597Z,99881.35
2017-11-29T00:15:07.330Z,99888.31
2017-11-29T00:17:42.258Z,99890.05
2017-11-29T00:20:16.709Z,99889.42
2017-11-29T00:22:51.693Z,99885.18
2017-11-29T00:25:26.215Z,99886.68
2017-11-29T00:28:01.453Z,99888.85
2017-11-29T00:30:36.045Z,99893.36
2017-11-29T00:33:11.031Z,99888.53
2017-11-29T00:35:45.605Z,99884.91
2017-11-29T00:38:20.478Z,99883.33
2017-11-29T00:40:55.137Z,99888.03
2017-11-29T00:43:30.370Z,99889.80
2017-11-29T00:46:04.785Z,99891.48
2017-11-29T00:48:39.849Z,99889.29
2017-11-29T00:51:14.652Z,99885.13
2017-11-29T00:53:49.226Z,99882.81
2017-11-29T00:56:24.165Z,99892.14
2017-11-29T00:58:58.721Z,99892.91
2017-11-29T01:01:33.447Z,99893.05
2017-11-29T01:04:08.104Z,99898.06
2017-11-29T01:06:42.917Z,99899.19
2017-11-29T01:09:17.617Z,99890.54
2017-11-29T01:11:52.449Z,99900.57
2017-11-29T01:14:27.373Z,99898.47
2017-11-29T01:17:02.105Z,99897.23
2017-11-29T01:19:36.934Z,99897.94
2017-11-29T01:22:11.810Z,99902.02
2017-11-29T01:24:46.769Z,99900.66
2017-11-29T01:27:21.870Z,99907.50
2017-11-29T01:29:56.666Z,99910.11
2017-11-29T01:32:31.518Z,99906.84
2017-11-29T01:35:06.653Z,99916.12
2017-11-29T01:37:41.513Z,99903.42
2017-11-29T01:40:16.109Z,99908.99
2017-11-29T01:42:51.365Z,99904.10
2017-11-29T01:45:26.209Z,99912.98
2017-11-29T01:48:00.866Z,99908.59
2017-11-29T01:50:36.081Z,99909.10
2017-11-29T01:53:11.238Z,99916.66
2017-11-29T01:55:46.258Z,99908.99
2017-11-29T01:58:21.051Z,99909.64
2017-11-29T02:00:55.698Z,99912.64
2017-11-29T02:03:30.398Z,99909.89
2017-11-29T02:06:16.347Z,99900.86
2017-11-29T02:08:50.829Z,99908.95
2017-11-29T02:11:25.735Z,99906.22
2017-11-29T02:14:00.657Z,99910.37
2017-11-29T02:16:35.643Z,99906.00
2017-11-29T02:19:10.647Z,99904.53
2017-11-29T02:21:45.249Z,99902.58
2017-11-29T02:24:19.869Z,99903.59
2017-11-29T02:26:54.550Z,99898.26
2017-11-29T02:29:29.153Z,99898.98
2017-11-29T02:32:03.650Z,99900.48
2017-11-29T02:34:38.654Z,99888.88
2017-11-29T02:37:13.366Z,99888.39
2017-11-29T02:39:59.458Z,99892.06
2017-11-29T02:42:41.937Z,99890.02
2017-11-29T02:45:16.334Z,99890.30
2017-11-29T02:47:51.213Z,99898.36
2017-11-29T02:50:25.970Z,99887.95
2017-11-29T02:53:00.825Z,99885.61
2017-11-29T02:55:35.246Z,99889.82
2017-11-29T02:58:10.205Z,99881.34
2017-11-29T03:00:44.927Z,99885.25
2017-11-29T03:03:20.222Z,99885.45
2017-11-29T03:05:54.885Z,99885.08
2017-11-29T03:08:30.168Z,99885.77
2017-11-29T03:11:05.106Z,99894.53
2017-11-29T03:13:39.617Z,99892.64
2017-11-29T03:16:14.757Z,99891.30
2017-11-29T03:18:49.610Z,99883.66
2017-11-29T03:21:24.300Z,99888.57
2017-11-29T03:23:59.092Z,99889.57
2017-11-29T03:26:33.757Z,99891.78
2017-11-29T03:29:08.549Z,99886.64
2017-11-29T03:31:43.550Z,99893.58
2017-11-29T03:34:18.252Z,99900.39
2017-11-29T03:36:53.185Z,99894.69
2017-11-29T03:39:28.166Z,99886.17
2017-11-29T03:42:03.064Z,99883.11
2017-11-29T03:44:38.161Z,99892.06
2017-11-29T03:47:13.098Z,99892.64
2017-11-29T03:49:47.873Z,99894.02
2017-11-29T03:52:22.809Z,99894.02
2017-11-29T03:54:57.629Z,99896.40
2017-11-29T03:57:32.563Z,99900.23
2017-11-29T04:00:07.386Z,99904.05
2017-11-29T04:02:42.415Z,99900.78
2017-11-29T04:05:17.546Z,99903.28
2017-11-29T04:07:52.422Z,99901.95
2017-11-29T04:10:26.864Z,99904.83
2017-11-29T04:13:01.881Z,99897.89
2017-11-29T04:15:37.004Z,99902.22
2017-11-29T04:18:11.609Z,99901.29
2017-11-29T04:20:46.337Z,99894.47
2017-11-29T04:23:21.147Z,99899.66
2017-11-29T04:25:56.222Z,99898.52
2017-11-29T04:28:30.722Z,99892.70
2017-11-29T04:31:05.722Z,99891.51
2017-11-29T04:33:40.507Z,99895.48
2017-11-29T04:36:15.558Z,99902.52
2017-11-29T04:38:50.333Z,99904.80
2017-11-29T04:41:25.236Z,99909.06
2017-11-29T04:43:59.904Z,99908.69
2017-11-29T04:46:34.870Z,99910.81
2017-11-29T04:49:09.405Z,99904.81
2017-11-29T04:51:44.325Z,99909.66
2017-11-29T04:54:19.318Z,99910.13
2017-11-29T04:56:54.113Z,99912.83
2017-11-29T04:59:28.479Z,99914.94
2017-11-29T05:02:03.313Z,99915.78
2017-11-29T05:04:37.810Z,99912.56
2017-11-29T05:07:12.662Z,99919.83
2017-11-29T05:09:47.442Z,99922.28
2017-11-29T05:12:21.542Z,99925.28
2017-11-29T05:14:56.571Z,99924.59
2017-11-29T05:17:31.085Z,99919.63
2017-11-29T05:20:05.748Z,99916.80
2017-11-29T05:22:40.681Z,99917.45
2017-11-29T05:25:15.361Z,99920.40
2017-11-29T05:27:50.425Z,99913.42
2017-11-29T05:30:25.230Z,99918.48
2017-11-29T05:32:59.885Z,99917.46
2017-11-29T05:35:34.618Z,99911.66
2017-11-29T05:38:09.222Z,99922.34
2017-11-29T05:40:43.903Z,99926.00
2017-11-29T05:43:18.594Z,99919.80
2017-11-29T05:45:53.354Z,99927.17
2017-11-29T05:48:27.928Z,99912.98
2017-11-29T05:51:02.546Z,99914.81
2017-11-29T05:53:37.281Z,99917.30
2017-11-29T05:56:12.075Z,99914.09
2017-11-29T05:58:47.285Z,99913.48
2017-11-29T06:01:21.658Z,99918.09
2017-11-29T06:03:56.264Z,99915.59
2017-11-29T06:06:31.059Z,99919.34
2017-11-29T06:09:05.842Z,99920.29
2017-11-29T06:11:40.595Z,99917.85
2017-11-29T06:14:15.426Z,99921.55
2017-11-29T06:16:50.097Z,99919.11
2017-11-29T06:19:25.207Z,99919.58
2017-11-29T06:21:59.589Z,99918.06
2017-11-29T06:24:34.595Z,99920.74
2017-11-29T06:27:09.421Z,99916.95
2017-11-29T06:29:44.024Z,99924.96
2017-11-29T06:32:19.279Z,99929.75
2017-11-29T06:34:54.406Z,99920.27
2017-11-29T06:37:29.165Z,99920.73
2017-11-29T06:40:03.942Z,99920.88
2017-11-29T06:42:38.786Z,99915.97
2017-11-29T06:45:13.405Z,99920.02
2017-11-29T06:47:48.065Z,99922.56
2017-11-29T06:50:23.087Z,99929.31
2017-11-29T06:52:57.638Z,99939.25
2017-11-29T06:55:32.665Z,99939.19
2017-11-29T06:58:07.366Z,99938.36
2017-11-29T07:00:42.150Z,99946.06
2017-11-29T07:03:16.955Z,99947.50
2017-11-29T07:05:51.726Z,99950.26
2017-11-29T07:08:26.779Z,99955.88
2017-11-29T07:11:01.606Z,99959.80
2017-11-29T07:13:36.662Z,99960.70
2017-11-29T07:16:11.220Z,99965.58
2017-11-29T07:18:45.535Z,99970.72
2017-11-29T07:21:20.790Z,99976.05
2017-11-29T07:23:55.621Z,99973.34
2017-11-29T07:26:30.145Z,99975.54
2017-11-29T07:29:05.258Z,99982.14
2017-11-29T07:31:40.715Z,99989.95
2017-11-29T07:34:15.185Z,99988.73
2017-11-29T07:36:50.052Z,99988.63
2017-11-29T07:39:27.938Z,99985.91
2017-11-29T07:42:02.715Z,99993.67
2017-11-29T07:44:37.898Z,99994.61
2017-11-29T07:47:12.721Z,99991.55
2017-11-29T07:49:47.377Z,99997.61
2017-11-29T07:52:22.206Z,100000.59
2017-11-29T07:54:57.043Z,100016.60
2017-11-29T07:57:31.662Z,100014.84
2017-11-29T08:00:06.694Z,100020.99
2017-11-29T08:02:41.604Z,100012.07
2017-11-29T08:05:16.459Z,100015.45
2017-11-29T08:07:51.489Z,100002.25
2017-11-29T08:10:26.007Z,100021.56
2017-11-29T08:13:00.834Z,100027.28
2017-11-29T08:15:35.666Z,100027.73
2017-11-29T08:18:10.435Z,100036.56
2017-11-29T08:20:45.434Z,100028.55
2017-11-29T08:23:20.154Z,100037.00
2017-11-29T08:25:54.549Z,100030.06
2017-11-29T08:28:29.231Z,100028.33
2017-11-29T08:31:03.418Z,100034.67
2017-11-29T08:33:38.417Z,100033.00
2017-11-29T08:36:12.862Z,100034.55
2017-11-29T08:38:47.578Z,100037.87
2017-11-29T08:41:22.166Z,100036.53
2017-11-29T08:43:57.050Z,100038.52
2017-11-29T08:46:31.278Z,100041.23
2017-11-29T08:49:06.303Z,100039.50
2017-11-29T08:51:41.733Z,100038.28
2017-11-29T08:54:16.698Z,100037.42
2017-11-29T08:56:51.233Z,100040.83
2017-11-29T08:59:26.234Z,100045.70
2017-11-29T09:02:01.085Z,100045.61
2017-11-29T09:04:35.894Z,100036.22
2017-11-29T09:07:10.774Z,100046.23
2017-11-29T09:09:45.425Z,100054.19
2017-11-29T09:12:20.202Z,100058.21
2017-11-29T09:14:55.133Z,100052.33
2017-11-29T09:17:29.474Z,100052.87
2017-11-29T09:20:04.510Z,100056.81
2017-11-29T09:22:39.761Z,100060.92
2017-11-29T09:25:14.452Z,100073.77
2017-11-29T09:27:49.118Z,100064.97
2017-11-29T09:30:23.837Z,100061.31
2017-11-29T09:32:58.646Z,100068.03
2017-11-29T09:35:33.307Z,100069.82
2017-11-29T09:38:08.962Z,100066.59
2017-11-29T09:40:43.682Z,100068.54
2017-11-29T09:43:18.291Z,100069.30
2017-11-29T09:45:52.915Z,100071.20
2017-11-29T09:48:27.651Z,100073.75
2017-11-29T09:51:02.498Z,100079.53
2017-11-29T09:53:37.250Z,100073.20
2017-11-29T09:56:11.882Z,100070.56
2017-11-29T09:58:46.562Z,100072.58
2017-11-29T10:01:21.434Z,100077.11
2017-11-29T10:03:55.902Z,100071.34
2017-11-29T10:06:30.561Z,100068.88
2017-11-29T10:09:05.133Z,100064.09
2017-11-29T10:11:39.894Z,100067.33
2017-11-29T10:14:16.784Z,100065.22
2017-11-29T10:16:51.390Z,100061.03
2017-11-29T10:19:25.734Z,100066.03
2017-11-29T10:22:00.046Z,100069.58
2017-11-29T10:24:34.631Z,100067.84
2017-11-29T10:27:09.207Z,100056.34
2017-11-29T10:29:43.549Z,100063.60
2017-11-29T10:32:18.295Z,100059.58
2017-11-29T10:34:53.117Z,100060.58
2017-11-29T10:37:27.416Z,100059.78
2017-11-29T10:40:02.018Z,100062.29
2017-11-29T10:42:36.832Z,100060.69
2017-11-29T10:45:11.645Z,100054.56
2017-11-29T10:47:46.226Z,100063.14
2017-11-29T10:50:21.107Z,100054.59
2017-11-29T10:52:55.858Z,100049.33
2017-11-29T10:55:30.657Z,100047.00
2017-11-29T10:58:05.550Z,100040.59
2017-11-29T11:00:40.322Z,100046.33
2017-11-29T11:03:14.630Z,100046.98
2017-11-29T11:05:49.163Z,100045.17
2017-11-29T11:08:23.902Z,100046.19
2017-11-29T11:10:58.510Z,100054.16
2017-11-29T11:13:32.938Z,100057.09
2017-11-29T11:16:07.790Z,100050.52
2017-11-29T11:18:42.316Z,100054.65
2017-11-29T11:21:17.111Z,100055.16
2017-11-29T11:23:51.440Z,100060.38
2017-11-29T11:26:26.597Z,100055.67
2017-11-29T11:29:00.615Z,100065.39
2017-11-29T11:31:35.326Z,100061.75
2017-11-29T11:34:09.779Z,100062.12
2017-11-29T11:36:44.597Z,100060.45
2017-11-29T11:39:19.318Z,100065.80
2017-11-29T11:41:54.005Z,100063.39
2017-11-29T11:44:27.937Z,100056.97
2017-11-29T11:47:01.919Z,100052.69
2017-11-29T11:49:36.386Z,100048.69
2017-11-29T11:52:11.264Z,100048.75
2017-11-29T11:54:45.898Z,100050.90
2017-11-29T11:57:20.400Z,100045.31
2017-11-29T11:59:55.322Z,100046.87
2017-11-29T12:02:30.047Z,100034.25
2017-11-29T12:05:05.059Z,100040.20
2017-11-29T12:07:39.850Z,100026.33
2017-11-29T12:10:14.533Z,100035.77
2017-11-29T12:12:49.317Z,100039.66
2017-11-29T12:15:24.163Z,100034.64
2017-11-29T12:17:58.856Z,100037.63
2017-11-29T12:20:32.942Z,100037.73
2017-11-29T12:23:07.890Z,100029.75
2017-11-29T12:25:42.702Z,100029.17
2017-11-29T12:28:17.506Z,100037.62
2017-11-29T12:30:52.239Z,100030.08
2017-11-29T12:33:26.912Z,100033.06
2017-11-29T12:36:01.615Z,100030.20
2017-11-29T12:38:36.570Z,100033.45
2017-11-29T12:41:11.091Z,100037.08
2017-11-29T12:43:45.897Z,100031.80
2017-11-29T12:46:20.479Z,100036.03
2017-11-29T12:49:06.450Z,100025.96
2017-11-29T12:51:41.305Z,100029.11
2017-11-29T12:54:15.698Z,100028.13
2017-11-29T12:56:50.681Z,100033.84
2017-11-29T12:59:25.146Z,100033.08
2017-11-29T13:01:59.770Z,100035.91
2017-11-29T13:04:34.477Z,100034.12
2017-11-29T13:07:09.270Z,100041.64
2017-11-29T13:09:44.033Z,100041.49
2017-11-29T13:12:19.046Z,100049.16
2017-11-29T13:14:54.066Z,100039.31
2017-11-29T13:17:28.559Z,100050.34
2017-11-29T13:20:03.142Z,100050.66
2017-11-29T13:22:38.162Z,100048.29
2017-11-29T13:25:12.832Z,100050.41
2017-11-29T13:27:47.464Z,100043.35
2017-11-29T13:30:21.850Z,100051.42
2017-11-29T13:32:55.943Z,100045.88
2017-11-29T13:35:30.739Z,100051.16
2017-11-29T13:38:04.833Z,100055.34
2017-11-29T13:40:39.554Z,100050.34
2017-11-29T13:43:14.746Z,100046.56
2017-11-29T13:45:49.043Z,100055.16
2017-11-29T13:48:23.774Z,100046.70
2017-11-29T13:50:58.657Z,100051.02
2017-11-29T13:53:33.435Z,100052.96
2017-11-29T13:56:08.035Z,100062.67
2017-11-29T13:58:42.768Z,100071.19
2017-11-29T14:01:17.495Z,100071.68
2017-11-29T14:03:52.339Z,100075.57
2017-11-29T14:06:27.043Z,100068.83
2017-11-29T14:09:02.007Z,100065.95
2017-11-29T14:11:36.907Z,100078.28
2017-11-29T14:14:11.695Z,100075.69
2017-11-29T14:16:46.422Z,100076.41
2017-11-29T14:19:21.446Z,100076.41
2017-11-29T14:21:56.146Z,100077.54
2017-11-29T14:24:30.742Z,100067.30
2017-11-29T14:27:05.393Z,100075.14
2017-11-29T14:29:39.954Z,100073.04
2017-11-29T14:32:14.778Z,100074.47
2017-11-29T14:34:49.813Z,100085.39
2017-11-29T14:37:24.898Z,100088.62
2017-11-29T14:39:59.631Z,100092.05
2017-11-29T14:42:33.974Z,100092.81
2017-11-29T14:45:08.817Z,100091.34
2017-11-29T14:47:43.338Z,100088.25
2017-11-29T14:50:18.319Z,100092.83
2017-11-29T14:52:52.904Z,100098.02
2017-11-29T14:55:27.744Z,100103.84
2017-11-29T14:58:02.870Z,100097.63
2017-11-29T15:00:37.805Z,100101.50
2017-11-29T15:03:12.621Z,100104.22
2017-11-29T15:05:47.656Z,100104.16
2017-11-29T15:08:23.062Z,100109.00
2017-11-29T15:10:58.334Z,100112.38
2017-11-29T15:13:33.167Z,100108.05
2017-11-29T15:16:09.482Z,100104.78
2017-11-29T15:18:43.987Z,100110.20
2017-11-29T15:21:18.610Z,100108.70
2017-11-29T15:23:53.701Z,100109.36
2017-11-29T15:26:28.514Z,100109.62
2017-11-29T15:29:03.447Z,100106.01
2017-11-29T15:31:37.942Z,100109.02
2017-11-29T15:34:13.057Z,100113.41
2017-11-29T15:36:47.982Z,100106.92
2017-11-29T15:39:22.510Z,100105.81
2017-11-29T15:41:57.366Z,100112.19
2017-11-29T15:44:33.470Z,100113.30
2017-11-29T15:47:08.814Z,100109.30
2017-11-29T15:49:43.746Z,100101.52
2017-11-29T15:52:18.343Z,100099.84
2017-11-29T15:54:53.104Z,100096.22
2017-11-29T15:57:28.336Z,100096.39
2017-11-29T16:00:03.341Z,100100.52
2017-11-29T16:02:37.866Z,100104.75
2017-11-29T16:05:12.830Z,100108.59
2017-11-29T16:07:47.615Z,100110.64
2017-11-29T16:10:22.506Z,100102.69
2017-11-29T16:12:57.191Z,100103.73
2017-11-29T16:15:32.147Z,100103.53
2017-11-29T16:18:06.819Z,100111.30
2017-11-29T16:20:42.087Z,100106.59
2017-11-29T16:23:16.378Z,100112.15
2017-11-29T16:25:51.431Z,100116.42
2017-11-29T16:28:25.943Z,100117.52
2017-11-29T16:31:00.797Z,100123.91
2017-11-29T16:33:35.745Z,100119.30
2017-11-29T16:36:10.190Z,100122.02
2017-11-29T16:38:45.147Z,100119.88
2017-11-29T16:41:20.033Z,100122.81
2017-11-29T16:43:54.881Z,100120.38
2017-11-29T16:46:29.753Z,100123.72
2017-11-29T16:49:04.202Z,100125.45
2017-11-29T16:51:38.678Z,100119.00
2017-11-29T16:54:13.712Z,100120.66
2017-11-29T16:56:48.778Z,100117.66
2017-11-29T16:59:23.526Z,100125.51
2017-11-29T17:01:58.378Z,100130.50
2017-11-29T17:04:32.686Z,100134.84
2017-11-29T17:07:07.768Z,100134.02
2017-11-29T17:09:42.438Z,100136.20
2017-11-29T17:12:17.266Z,100127.36
2017-11-29T17:14:51.577Z,100122.27
2017-11-29T17:17:26.317Z,100124.16
2017-11-29T17:20:01.447Z,100133.62
2017-11-29T17:22:35.661Z,100129.58
2017-11-29T17:25:09.818Z,100134.23
2017-11-29T17:27:44.804Z,100145.39
2017-11-29T17:30:19.294Z,100132.85
2017-11-29T17:32:54.397Z,100140.68
2017-11-29T17:35:29.634Z,100141.22
2017-11-29T17:38:04.030Z,100141.57
2017-11-29T17:40:39.294Z,100148.23
2017-11-29T17:43:14.096Z,100146.56
2017-11-29T17:45:49.104Z,100150.66
2017-11-29T17:48:23.570Z,100147.77
2017-11-29T17:50:58.718Z,100150.55
2017-11-29T17:53:33.031Z,100151.16
2017-11-29T17:56:07.962Z,100154.02
2017-11-29T17:58:42.564Z,100155.69
2017-11-29T18:01:17.198Z,100151.00
2017-11-29T18:03:52.349Z,100148.02
2017-11-29T18:06:26.874Z,100154.93
2017-11-29T18:09:01.780Z,100158.48
2017-11-29T18:11:36.550Z,100161.53
2017-11-29T18:14:11.234Z,100166.08
2017-11-29T18:16:46.114Z,100168.45
2017-11-29T18:19:21.070Z,100161.08
2017-11-29T18:21:55.727Z,100160.06
2017-11-29T18:24:29.986Z,100163.05
2017-11-29T18:27:04.613Z,100160.98
2017-11-29T18:29:39.671Z,100164.92
2017-11-29T18:32:14.250Z,100155.70
2017-11-29T18:34:49.386Z,100158.87
2017-11-29T18:37:24.314Z,100155.44
2017-11-29T18:39:58.885Z,100147.98
2017-11-29T18:42:34.221Z,100152.98
2017-11-29T18:45:09.745Z,100149.98
2017-11-29T18:47:43.970Z,100145.21
2017-11-29T18:50:19.057Z,100138.76
2017-11-29T18:52:54.054Z,100157.78
2017-11-29T18:55:29.302Z,100156.71
2017-11-29T18:58:03.779Z,100157.30
2017-11-29T19:00:38.541Z,100160.95
2017-11-29T19:03:13.654Z,100164.60
2017-11-29T19:05:48.254Z,100156.88
2017-11-29T19:08:22.817Z,100150.48
2017-11-29T19:10:57.814Z,100157.77
2017-11-29T19:13:33.254Z,100162.70
2017-11-29T19:16:07.985Z,100160.54
2017-11-29T19:18:42.430Z,100156.44
2017-11-29T19:21:17.568Z,100153.84
2017-11-29T19:23:52.817Z,100163.34
2017-11-29T19:26:27.874Z,100169.25
2017-11-29T19:29:02.534Z,100162.86
2017-11-29T19:31:37.325Z,100172.81
2017-11-29T19:34:11.917Z,100171.15
2017-11-29T19:36:47.093Z,100182.17
2017-11-29T19:39:21.799Z,100184.13
2017-11-29T19:41:56.634Z,100194.23
2017-11-29T19:44:31.154Z,100191.06
2017-11-29T19:47:06.118Z,100188.08
2017-11-29T19:49:41.137Z,100183.75
2017-11-29T19:52:15.965Z,100184.80
2017-11-29T19:54:50.946Z,100182.05
2017-11-29T19:57:26.070Z,100181.02
2017-11-29T20:00:00.838Z,100184.62
2017-11-29T20:02:35.705Z,100185.05
2017-11-29T20:05:10.435Z,100169.62
2017-11-29T20:07:45.658Z,100179.50
2017-11-29T20:10:20.706Z,100173.25
2017-11-29T20:12:55.625Z,100168.88
2017-11-29T20:15:29.745Z,100171.48
2017-11-29T20:18:05.197Z,100163.07
2017-11-29T20:20:40.250Z,100167.84
2017-11-29T20:23:14.974Z,100172.62
2017-11-29T20:25:49.939Z,100176.70
2017-11-29T20:28:24.755Z,100172.17
2017-11-29T20:30:59.913Z,100166.07
2017-11-29T20:33:34.799Z,100170.41
2017-11-29T20:36:09.849Z,100174.88
2017-11-29T20:38:44.566Z,100171.08
2017-11-29T20:41:19.370Z,100176.34
2017-11-29T20:43:54.225Z,100179.09
2017-11-29T20:46:29.073Z,100172.11
2017-11-29T20:49:03.905Z,100173.29
2017-11-29T20:51:39.033Z,100174.33
2017-11-29T20:54:13.837Z,100167.67
2017-11-29T20:56:48.994Z,100176.61
2017-11-29T20:59:23.937Z,100174.48
2017-11-29T21:01:59.173Z,100179.11
2017-11-29T21:04:34.222Z,100177.44
2017-11-29T21:07:09.402Z,100178.66
2017-11-29T21:09:44.102Z,100175.92
2017-11-29T21:12:18.647Z,100178.81
2017-11-29T21:14:54.137Z,100171.88
2017-11-29T21:17:28.629Z,100170.73
2017-11-29T21:20:03.693Z,100169.73
2017-11-29T21:22:38.317Z,100172.39
2017-11-29T21:25:12.856Z,100168.95
2017-11-29T21:27:47.898Z,100168.98
2017-11-29T21:30:22.609Z,100157.00
2017-11-29T21:32:57.595Z,100161.81
2017-11-29T21:35:32.208Z,100160.28
2017-11-29T21:38:07.240Z,100162.05
2017-11-29T21:40:42.053Z,100162.70
2017-11-29T21:43:17.393Z,100162.17
2017-11-29T21:45:52.302Z,100163.49
2017-11-29T21:48:26.688Z,100161.28
2017-11-29T21:51:01.158Z,100165.04
2017-11-29T21:53:36.192Z,100163.05
2017-11-29T21:56:11.140Z,100167.19
2017-11-29T21:58:45.746Z,100166.37
2017-11-29T22:01:20.628Z,100162.09
2017-11-29T22:03:55.342Z,100163.20
2017-11-29T22:06:30.070Z,100161.89
2017-11-29T22:09:04.353Z,100149.81
2017-11-29T22:11:39.483Z,100160.19
2017-11-29T22:14:14.233Z,100159.41
2017-11-29T22:16:49.112Z,100157.54
2017-11-29T22:19:24.081Z,100154.09
2017-11-29T22:21:58.585Z,100157.41
2017-11-29T22:24:33.524Z,100157.02
2017-11-29T22:27:07.891Z,100151.84
2017-11-29T22:29:42.697Z,100144.47
2017-11-29T22:32:17.734Z,100149.72
2017-11-29T22:34:52.510Z,100158.53
2017-11-29T22:37:27.463Z,100159.63
2017-11-29T22:40:02.577Z,100159.46
2017-11-29T22:42:37.409Z,100167.36
2017-11-29T22:45:12.237Z,100161.12
2017-11-29T22:47:46.946Z,100154.28
2017-11-29T22:50:21.869Z,100154.80
2017-11-29T22:52:56.707Z,100161.91
2017-11-29T22:55:31.526Z,100160.20
2017-11-29T22:58:06.682Z,100162.95
2017-11-29T23:00:41.811Z,100161.86
2017-11-29T23:03:16.273Z,100156.36
2017-11-29T23:05:51.304Z,100158.03
2017-11-29T23:08:25.941Z,100154.39
2017-11-29T23:11:00.919Z,100158.64
2017-11-29T23:13:35.831Z,100158.02
2017-11-29T23:16:10.809Z,100156.60
2017-11-29T23:18:45.289Z,100156.81
2017-11-29T23:21:20.242Z,100143.45
2017-11-29T23:23:54.626Z,100150.65
2017-11-29T23:26:29.535Z,100135.97
2017-11-29T23:29:04.248Z,100136.61
2017-11-29T23:31:39.266Z,100137.55
2017-11-29T23:34:13.976Z,100134.61
2017-11-29T23:36:49.030Z,100132.27
2017-11-29T23:39:23.703Z,100122.19
2017-11-29T23:41:58.734Z,100119.97
2017-11-29T23:44:33.421Z,100117.81
2017-11-29T23:47:08.185Z,100119.77
2017-11-29T23:49:42.885Z,100112.34
2017-11-29T23:52:17.518Z,100115.18
2017-11-29T23:54:52.341Z,100117.84
2017-11-29T23:57:26.841Z,100117.06
